sensor_id;sensor_type;location;lat;lon;timestamp;P1;durP1;ratioP1;P2;durP2;ratioP2
25163;SDS011;13440;50.860;13.662;2022-12-07T00:00:46;18.58;;;14.05;;
25163;SDS011;13440;50.860;13.662;2022-12-07T00:03:11;16.30;;;12.00;;
25163;SDS011;13440;50.860;13.662;2022-12-07T00:05:36;17.10;;;12.60;;
25163;SDS011;13440;50.860;13.662;2022-12-07T00:08:01;15.98;;;11.65;;
25163;SDS011;13440;50.860;13.662;2022-12-07T00:10:27;16.35;;;11.85;;
25163;SDS011;13440;50.860;13.662;2022-12-07T00:12:52;15.63;;;11.25;;
25163;SDS011;13440;50.860;13.662;2022-12-07T00:15:17;18.20;;;11.90;;
25163;SDS011;13440;50.860;13.662;2022-12-07T00:17:42;15.48;;;11.05;;
25163;SDS011;13440;50.860;13.662;2022-12-07T00:20:08;14.32;;;10.25;;
25163;SDS011;13440;50.860;13.662;2022-12-07T00:22:33;13.80;;;8.55;;
25163;SDS011;13440;50.860;13.662;2022-12-07T00:24:58;12.05;;;8.50;;
25163;SDS011;13440;50.860;13.662;2022-12-07T00:27:23;12.80;;;8.52;;
25163;SDS011;13440;50.860;13.662;2022-12-07T00:29:49;14.25;;;9.48;;
25163;SDS011;13440;50.860;13.662;2022-12-07T00:32:14;12.85;;;9.25;;
25163;SDS011;13440;50.860;13.662;2022-12-07T00:34:39;14.65;;;9.82;;
25163;SDS011;13440;50.860;13.662;2022-12-07T00:37:04;12.50;;;9.07;;
25163;SDS011;13440;50.860;13.662;2022-12-07T00:39:30;15.73;;;9.70;;
25163;SDS011;13440;50.860;13.662;2022-12-07T00:41:55;14.75;;;10.32;;
25163;SDS011;13440;50.860;13.662;2022-12-07T00:44:20;15.85;;;10.13;;
25163;SDS011;13440;50.860;13.662;2022-12-07T00:46:45;14.57;;;10.27;;
25163;SDS011;13440;50.860;13.662;2022-12-07T00:49:11;13.93;;;9.93;;
25163;SDS011;13440;50.860;13.662;2022-12-07T00:51:37;15.77;;;10.35;;
25163;SDS011;13440;50.860;13.662;2022-12-07T00:54:02;16.92;;;9.85;;
25163;SDS011;13440;50.860;13.662;2022-12-07T00:56:28;14.00;;;9.68;;
25163;SDS011;13440;50.860;13.662;2022-12-07T00:58:54;14.85;;;10.60;;
25163;SDS011;13440;50.860;13.662;2022-12-07T01:01:20;16.52;;;10.23;;
25163;SDS011;13440;50.860;13.662;2022-12-07T01:03:46;17.73;;;11.38;;
25163;SDS011;13440;50.860;13.662;2022-12-07T01:06:14;19.20;;;12.00;;
25163;SDS011;13440;50.860;13.662;2022-12-07T01:08:39;14.80;;;10.93;;
25163;SDS011;13440;50.860;13.662;2022-12-07T01:11:05;15.15;;;10.32;;
25163;SDS011;13440;50.860;13.662;2022-12-07T01:13:31;15.95;;;11.07;;
25163;SDS011;13440;50.860;13.662;2022-12-07T01:15:58;14.75;;;10.35;;
25163;SDS011;13440;50.860;13.662;2022-12-07T01:18:25;16.75;;;11.48;;
25163;SDS011;13440;50.860;13.662;2022-12-07T01:21:03;14.50;;;10.68;;
25163;SDS011;13440;50.860;13.662;2022-12-07T01:23:29;14.80;;;10.50;;
25163;SDS011;13440;50.860;13.662;2022-12-07T01:25:58;15.88;;;11.23;;
25163;SDS011;13440;50.860;13.662;2022-12-07T01:28:24;17.05;;;11.77;;
25163;SDS011;13440;50.860;13.662;2022-12-07T01:31:00;19.48;;;12.18;;
25163;SDS011;13440;50.860;13.662;2022-12-07T01:33:29;17.40;;;12.35;;
25163;SDS011;13440;50.860;13.662;2022-12-07T01:35:59;17.33;;;12.35;;
25163;SDS011;13440;50.860;13.662;2022-12-07T01:38:25;17.42;;;12.27;;
25163;SDS011;13440;50.860;13.662;2022-12-07T01:40:54;16.42;;;12.30;;
25163;SDS011;13440;50.860;13.662;2022-12-07T01:43:19;16.85;;;10.85;;
25163;SDS011;13440;50.860;13.662;2022-12-07T01:45:45;17.00;;;11.68;;
25163;SDS011;13440;50.860;13.662;2022-12-07T01:48:10;17.73;;;11.27;;
25163;SDS011;13440;50.860;13.662;2022-12-07T01:50:37;15.63;;;10.88;;
25163;SDS011;13440;50.860;13.662;2022-12-07T01:53:04;16.00;;;11.35;;
25163;SDS011;13440;50.860;13.662;2022-12-07T01:55:30;12.70;;;9.25;;
25163;SDS011;13440;50.860;13.662;2022-12-07T01:57:56;13.38;;;9.10;;
25163;SDS011;13440;50.860;13.662;2022-12-07T02:00:21;14.10;;;9.52;;
25163;SDS011;13440;50.860;13.662;2022-12-07T02:05:12;13.20;;;9.20;;
25163;SDS011;13440;50.860;13.662;2022-12-07T02:07:38;13.48;;;9.05;;
25163;SDS011;13440;50.860;13.662;2022-12-07T02:10:17;12.48;;;9.32;;
25163;SDS011;13440;50.860;13.662;2022-12-07T02:12:43;11.73;;;8.98;;
25163;SDS011;13440;50.860;13.662;2022-12-07T02:15:10;12.93;;;9.48;;
25163;SDS011;13440;50.860;13.662;2022-12-07T02:27:47;22.08;;;14.77;;
25163;SDS011;13440;50.860;13.662;2022-12-07T02:30:16;22.85;;;14.40;;
25163;SDS011;13440;50.860;13.662;2022-12-07T02:37:43;20.70;;;13.65;;
25163;SDS011;13440;50.860;13.662;2022-12-07T02:42:43;21.55;;;14.23;;
25163;SDS011;13440;50.860;13.662;2022-12-07T02:45:10;19.60;;;14.02;;
25163;SDS011;13440;50.860;13.662;2022-12-07T02:47:37;22.38;;;14.45;;
25163;SDS011;13440;50.860;13.662;2022-12-07T02:50:04;19.58;;;14.05;;
25163;SDS011;13440;50.860;13.662;2022-12-07T02:52:29;20.60;;;14.60;;
25163;SDS011;13440;50.860;13.662;2022-12-07T02:54:54;27.42;;;17.05;;
25163;SDS011;13440;50.860;13.662;2022-12-07T02:59:56;19.75;;;13.88;;
25163;SDS011;13440;50.860;13.662;2022-12-07T03:02:35;20.88;;;13.80;;
25163;SDS011;13440;50.860;13.662;2022-12-07T03:13:30;20.83;;;14.13;;
25163;SDS011;13440;50.860;13.662;2022-12-07T03:15:32;18.13;;;13.48;;
25163;SDS011;13440;50.860;13.662;2022-12-07T03:17:59;18.40;;;13.48;;
25163;SDS011;13440;50.860;13.662;2022-12-07T03:20:25;18.88;;;13.68;;
25163;SDS011;13440;50.860;13.662;2022-12-07T03:22:52;18.85;;;13.40;;
25163;SDS011;13440;50.860;13.662;2022-12-07T03:25:19;17.23;;;12.32;;
25163;SDS011;13440;50.860;13.662;2022-12-07T03:27:54;19.00;;;12.80;;
25163;SDS011;13440;50.860;13.662;2022-12-07T03:30:28;17.83;;;12.25;;
25163;SDS011;13440;50.860;13.662;2022-12-07T03:33:03;15.35;;;11.45;;
25163;SDS011;13440;50.860;13.662;2022-12-07T03:35:37;14.95;;;11.27;;
25163;SDS011;13440;50.860;13.662;2022-12-07T03:38:18;15.07;;;11.40;;
25163;SDS011;13440;50.860;13.662;2022-12-07T03:43:22;16.38;;;11.60;;
25163;SDS011;13440;50.860;13.662;2022-12-07T03:48:20;15.25;;;11.20;;
25163;SDS011;13440;50.860;13.662;2022-12-07T03:50:49;17.50;;;11.90;;
25163;SDS011;13440;50.860;13.662;2022-12-07T03:53:20;18.10;;;12.10;;
25163;SDS011;13440;50.860;13.662;2022-12-07T03:55:46;18.73;;;12.57;;
25163;SDS011;13440;50.860;13.662;2022-12-07T03:58:15;20.00;;;12.77;;
25163;SDS011;13440;50.860;13.662;2022-12-07T04:00:41;17.83;;;12.43;;
25163;SDS011;13440;50.860;13.662;2022-12-07T04:03:07;17.00;;;11.52;;
25163;SDS011;13440;50.860;13.662;2022-12-07T04:05:32;16.85;;;11.80;;
25163;SDS011;13440;50.860;13.662;2022-12-07T04:07:58;17.98;;;11.82;;
25163;SDS011;13440;50.860;13.662;2022-12-07T04:10:23;15.85;;;11.30;;
25163;SDS011;13440;50.860;13.662;2022-12-07T04:12:48;15.75;;;11.00;;
25163;SDS011;13440;50.860;13.662;2022-12-07T04:15:13;15.90;;;11.40;;
25163;SDS011;13440;50.860;13.662;2022-12-07T04:17:39;18.17;;;12.02;;
25163;SDS011;13440;50.860;13.662;2022-12-07T04:20:04;15.00;;;10.57;;
25163;SDS011;13440;50.860;13.662;2022-12-07T04:22:37;16.95;;;11.52;;
25163;SDS011;13440;50.860;13.662;2022-12-07T04:25:02;15.38;;;10.85;;
25163;SDS011;13440;50.860;13.662;2022-12-07T04:27:28;17.30;;;11.00;;
25163;SDS011;13440;50.860;13.662;2022-12-07T04:29:53;13.18;;;9.88;;
25163;SDS011;13440;50.860;13.662;2022-12-07T04:32:20;16.30;;;10.35;;
25163;SDS011;13440;50.860;13.662;2022-12-07T04:34:45;14.63;;;10.18;;
25163;SDS011;13440;50.860;13.662;2022-12-07T04:37:10;18.27;;;10.10;;
25163;SDS011;13440;50.860;13.662;2022-12-07T04:39:35;15.10;;;9.82;;
25163;SDS011;13440;50.860;13.662;2022-12-07T04:42:01;17.60;;;10.23;;
25163;SDS011;13440;50.860;13.662;2022-12-07T04:44:27;14.77;;;9.98;;
25163;SDS011;13440;50.860;13.662;2022-12-07T04:46:52;16.30;;;9.82;;
25163;SDS011;13440;50.860;13.662;2022-12-07T04:49:18;12.75;;;9.00;;
25163;SDS011;13440;50.860;13.662;2022-12-07T04:51:44;15.88;;;9.52;;
25163;SDS011;13440;50.860;13.662;2022-12-07T04:54:10;15.38;;;8.73;;
25163;SDS011;13440;50.860;13.662;2022-12-07T04:56:35;14.15;;;8.77;;
25163;SDS011;13440;50.860;13.662;2022-12-07T04:59:01;12.52;;;8.23;;
25163;SDS011;13440;50.860;13.662;2022-12-07T05:01:27;15.40;;;9.63;;
25163;SDS011;13440;50.860;13.662;2022-12-07T05:03:52;15.35;;;8.63;;
25163;SDS011;13440;50.860;13.662;2022-12-07T05:06:18;14.63;;;9.65;;
25163;SDS011;13440;50.860;13.662;2022-12-07T05:08:43;12.27;;;8.70;;
25163;SDS011;13440;50.860;13.662;2022-12-07T05:11:08;12.05;;;8.32;;
25163;SDS011;13440;50.860;13.662;2022-12-07T05:13:34;13.30;;;8.45;;
25163;SDS011;13440;50.860;13.662;2022-12-07T05:16:00;13.52;;;8.52;;
25163;SDS011;13440;50.860;13.662;2022-12-07T05:18:25;18.83;;;8.77;;
25163;SDS011;13440;50.860;13.662;2022-12-07T05:20:51;14.55;;;8.98;;
25163;SDS011;13440;50.860;13.662;2022-12-07T05:23:16;14.35;;;8.45;;
25163;SDS011;13440;50.860;13.662;2022-12-07T05:25:42;11.63;;;7.60;;
25163;SDS011;13440;50.860;13.662;2022-12-07T05:28:07;11.02;;;7.40;;
25163;SDS011;13440;50.860;13.662;2022-12-07T05:30:33;9.38;;;7.03;;
25163;SDS011;13440;50.860;13.662;2022-12-07T05:32:58;10.30;;;7.15;;
25163;SDS011;13440;50.860;13.662;2022-12-07T05:35:23;12.88;;;7.25;;
25163;SDS011;13440;50.860;13.662;2022-12-07T05:37:48;11.73;;;7.13;;
25163;SDS011;13440;50.860;13.662;2022-12-07T05:40:14;9.73;;;6.72;;
25163;SDS011;13440;50.860;13.662;2022-12-07T05:42:39;8.55;;;6.07;;
25163;SDS011;13440;50.860;13.662;2022-12-07T05:45:05;9.32;;;6.22;;
25163;SDS011;13440;50.860;13.662;2022-12-07T05:47:30;10.88;;;6.13;;
25163;SDS011;13440;50.860;13.662;2022-12-07T05:49:56;8.93;;;6.25;;
25163;SDS011;13440;50.860;13.662;2022-12-07T05:52:21;9.00;;;5.85;;
25163;SDS011;13440;50.860;13.662;2022-12-07T05:54:47;8.10;;;5.90;;
25163;SDS011;13440;50.860;13.662;2022-12-07T05:57:12;9.88;;;5.50;;
25163;SDS011;13440;50.860;13.662;2022-12-07T05:59:37;7.68;;;5.30;;
25163;SDS011;13440;50.860;13.662;2022-12-07T06:02:04;7.70;;;5.32;;
25163;SDS011;13440;50.860;13.662;2022-12-07T06:04:30;8.35;;;5.60;;
25163;SDS011;13440;50.860;13.662;2022-12-07T06:06:56;7.45;;;5.65;;
25163;SDS011;13440;50.860;13.662;2022-12-07T06:09:22;7.63;;;5.60;;
25163;SDS011;13440;50.860;13.662;2022-12-07T06:11:47;9.18;;;6.18;;
25163;SDS011;13440;50.860;13.662;2022-12-07T06:14:31;9.10;;;5.10;;
25163;SDS011;13440;50.860;13.662;2022-12-07T06:16:56;7.78;;;5.35;;
25163;SDS011;13440;50.860;13.662;2022-12-07T06:19:22;8.95;;;6.50;;
25163;SDS011;13440;50.860;13.662;2022-12-07T06:21:47;7.25;;;5.68;;
25163;SDS011;13440;50.860;13.662;2022-12-07T06:24:13;7.72;;;5.60;;
25163;SDS011;13440;50.860;13.662;2022-12-07T06:26:39;9.15;;;6.10;;
25163;SDS011;13440;50.860;13.662;2022-12-07T06:29:04;7.63;;;6.18;;
25163;SDS011;13440;50.860;13.662;2022-12-07T06:31:29;8.00;;;6.03;;
25163;SDS011;13440;50.860;13.662;2022-12-07T06:33:58;10.23;;;6.28;;
25163;SDS011;13440;50.860;13.662;2022-12-07T06:36:24;9.18;;;6.63;;
25163;SDS011;13440;50.860;13.662;2022-12-07T06:38:49;8.18;;;6.15;;
25163;SDS011;13440;50.860;13.662;2022-12-07T06:41:14;9.63;;;6.25;;
25163;SDS011;13440;50.860;13.662;2022-12-07T06:43:39;9.60;;;6.50;;
25163;SDS011;13440;50.860;13.662;2022-12-07T06:46:05;8.90;;;6.53;;
25163;SDS011;13440;50.860;13.662;2022-12-07T06:48:30;9.23;;;6.53;;
25163;SDS011;13440;50.860;13.662;2022-12-07T06:50:55;8.32;;;6.20;;
25163;SDS011;13440;50.860;13.662;2022-12-07T06:53:21;8.82;;;5.72;;
25163;SDS011;13440;50.860;13.662;2022-12-07T06:55:46;10.35;;;6.45;;
25163;SDS011;13440;50.860;13.662;2022-12-07T06:58:12;7.85;;;6.07;;
25163;SDS011;13440;50.860;13.662;2022-12-07T07:00:37;9.52;;;6.38;;
25163;SDS011;13440;50.860;13.662;2022-12-07T07:03:02;8.27;;;6.20;;
25163;SDS011;13440;50.860;13.662;2022-12-07T07:05:28;8.90;;;6.43;;
25163;SDS011;13440;50.860;13.662;2022-12-07T07:07:53;10.05;;;6.72;;
25163;SDS011;13440;50.860;13.662;2022-12-07T07:10:18;8.77;;;6.03;;
25163;SDS011;13440;50.860;13.662;2022-12-07T07:12:43;7.45;;;6.07;;
25163;SDS011;13440;50.860;13.662;2022-12-07T07:15:09;7.95;;;6.07;;
25163;SDS011;13440;50.860;13.662;2022-12-07T07:17:34;7.65;;;6.05;;
25163;SDS011;13440;50.860;13.662;2022-12-07T07:20:00;7.00;;;5.80;;
25163;SDS011;13440;50.860;13.662;2022-12-07T07:22:25;7.30;;;5.38;;
25163;SDS011;13440;50.860;13.662;2022-12-07T07:24:50;9.40;;;5.70;;
25163;SDS011;13440;50.860;13.662;2022-12-07T07:27:15;7.80;;;5.72;;
25163;SDS011;13440;50.860;13.662;2022-12-07T07:29:41;6.82;;;5.97;;
25163;SDS011;13440;50.860;13.662;2022-12-07T07:32:06;7.57;;;6.07;;
25163;SDS011;13440;50.860;13.662;2022-12-07T07:34:32;6.40;;;5.43;;
25163;SDS011;13440;50.860;13.662;2022-12-07T07:36:57;7.47;;;5.53;;
25163;SDS011;13440;50.860;13.662;2022-12-07T07:39:23;6.75;;;5.60;;
25163;SDS011;13440;50.860;13.662;2022-12-07T07:41:48;5.78;;;5.10;;
25163;SDS011;13440;50.860;13.662;2022-12-07T07:44:22;6.85;;;5.70;;
25163;SDS011;13440;50.860;13.662;2022-12-07T07:46:48;8.82;;;5.95;;
25163;SDS011;13440;50.860;13.662;2022-12-07T07:49:13;5.68;;;4.88;;
25163;SDS011;13440;50.860;13.662;2022-12-07T07:51:38;6.07;;;5.13;;
25163;SDS011;13440;50.860;13.662;2022-12-07T07:54:03;6.90;;;5.43;;
25163;SDS011;13440;50.860;13.662;2022-12-07T07:56:29;6.40;;;5.55;;
25163;SDS011;13440;50.860;13.662;2022-12-07T07:58:54;7.25;;;6.15;;
25163;SDS011;13440;50.860;13.662;2022-12-07T08:01:19;7.38;;;5.90;;
25163;SDS011;13440;50.860;13.662;2022-12-07T08:03:48;7.93;;;7.05;;
25163;SDS011;13440;50.860;13.662;2022-12-07T08:06:13;8.40;;;6.82;;
25163;SDS011;13440;50.860;13.662;2022-12-07T08:08:38;8.07;;;6.93;;
25163;SDS011;13440;50.860;13.662;2022-12-07T08:11:07;9.77;;;8.50;;
25163;SDS011;13440;50.860;13.662;2022-12-07T08:13:32;12.07;;;9.57;;
25163;SDS011;13440;50.860;13.662;2022-12-07T08:15:58;12.40;;;9.95;;
25163;SDS011;13440;50.860;13.662;2022-12-07T08:18:23;12.63;;;10.18;;
25163;SDS011;13440;50.860;13.662;2022-12-07T08:20:49;15.80;;;11.15;;
25163;SDS011;13440;50.860;13.662;2022-12-07T08:23:14;14.00;;;10.30;;
25163;SDS011;13440;50.860;13.662;2022-12-07T08:25:39;14.27;;;11.20;;
25163;SDS011;13440;50.860;13.662;2022-12-07T08:28:05;13.10;;;10.43;;
25163;SDS011;13440;50.860;13.662;2022-12-07T08:30:30;15.73;;;9.98;;
25163;SDS011;13440;50.860;13.662;2022-12-07T08:32:56;13.75;;;10.68;;
25163;SDS011;13440;50.860;13.662;2022-12-07T08:35:21;12.48;;;10.35;;
25163;SDS011;13440;50.860;13.662;2022-12-07T08:37:46;14.52;;;10.02;;
25163;SDS011;13440;50.860;13.662;2022-12-07T08:40:12;13.35;;;10.07;;
25163;SDS011;13440;50.860;13.662;2022-12-07T08:42:43;15.10;;;9.55;;
25163;SDS011;13440;50.860;13.662;2022-12-07T08:45:13;13.95;;;9.40;;
25163;SDS011;13440;50.860;13.662;2022-12-07T08:47:50;12.48;;;8.73;;
25163;SDS011;13440;50.860;13.662;2022-12-07T08:50:17;14.57;;;8.85;;
25163;SDS011;13440;50.860;13.662;2022-12-07T08:52:42;12.55;;;8.57;;
25163;SDS011;13440;50.860;13.662;2022-12-07T08:55:09;11.05;;;7.82;;
25163;SDS011;13440;50.860;13.662;2022-12-07T08:57:36;12.13;;;8.40;;
25163;SDS011;13440;50.860;13.662;2022-12-07T09:00:03;10.52;;;7.25;;
25163;SDS011;13440;50.860;13.662;2022-12-07T09:02:28;13.65;;;8.70;;
25163;SDS011;13440;50.860;13.662;2022-12-07T09:04:55;12.80;;;7.97;;
25163;SDS011;13440;50.860;13.662;2022-12-07T09:07:20;10.38;;;7.90;;
25163;SDS011;13440;50.860;13.662;2022-12-07T09:09:45;11.15;;;7.95;;
25163;SDS011;13440;50.860;13.662;2022-12-07T09:12:10;14.77;;;10.27;;
25163;SDS011;13440;50.860;13.662;2022-12-07T09:14:36;11.25;;;8.60;;
25163;SDS011;13440;50.860;13.662;2022-12-07T09:17:05;11.57;;;7.82;;
25163;SDS011;13440;50.860;13.662;2022-12-07T09:19:31;9.48;;;6.78;;
25163;SDS011;13440;50.860;13.662;2022-12-07T09:21:56;9.88;;;7.25;;
25163;SDS011;13440;50.860;13.662;2022-12-07T09:24:21;9.40;;;7.07;;
25163;SDS011;13440;50.860;13.662;2022-12-07T09:26:47;11.35;;;7.00;;
25163;SDS011;13440;50.860;13.662;2022-12-07T09:29:12;9.85;;;7.13;;
25163;SDS011;13440;50.860;13.662;2022-12-07T09:31:38;10.82;;;8.00;;
25163;SDS011;13440;50.860;13.662;2022-12-07T09:34:03;9.20;;;7.05;;
25163;SDS011;13440;50.860;13.662;2022-12-07T09:36:30;8.70;;;6.85;;
25163;SDS011;13440;50.860;13.662;2022-12-07T09:38:55;8.88;;;6.68;;
25163;SDS011;13440;50.860;13.662;2022-12-07T09:41:21;7.97;;;6.22;;
25163;SDS011;13440;50.860;13.662;2022-12-07T09:43:47;9.18;;;5.55;;
25163;SDS011;13440;50.860;13.662;2022-12-07T09:46:14;8.73;;;5.90;;
25163;SDS011;13440;50.860;13.662;2022-12-07T09:48:40;8.88;;;6.50;;
25163;SDS011;13440;50.860;13.662;2022-12-07T09:51:26;10.45;;;6.07;;
25163;SDS011;13440;50.860;13.662;2022-12-07T09:53:52;8.43;;;5.47;;
25163;SDS011;13440;50.860;13.662;2022-12-07T09:56:18;8.00;;;5.72;;
25163;SDS011;13440;50.860;13.662;2022-12-07T09:58:44;8.15;;;5.38;;
25163;SDS011;13440;50.860;13.662;2022-12-07T10:01:20;8.02;;;5.60;;
25163;SDS011;13440;50.860;13.662;2022-12-07T10:03:55;8.98;;;5.10;;
25163;SDS011;13440;50.860;13.662;2022-12-07T10:06:22;10.05;;;4.82;;
25163;SDS011;13440;50.860;13.662;2022-12-07T10:08:48;6.38;;;4.65;;
25163;SDS011;13440;50.860;13.662;2022-12-07T10:11:13;10.20;;;5.35;;
25163;SDS011;13440;50.860;13.662;2022-12-07T10:13:41;8.18;;;5.05;;
25163;SDS011;13440;50.860;13.662;2022-12-07T10:16:27;8.27;;;4.93;;
25163;SDS011;13440;50.860;13.662;2022-12-07T10:18:53;9.45;;;5.00;;
25163;SDS011;13440;50.860;13.662;2022-12-07T10:21:28;9.65;;;5.32;;
25163;SDS011;13440;50.860;13.662;2022-12-07T10:28:53;8.48;;;5.80;;
25163;SDS011;13440;50.860;13.662;2022-12-07T10:31:20;10.05;;;5.60;;
25163;SDS011;13440;50.860;13.662;2022-12-07T10:33:50;7.57;;;5.32;;
25163;SDS011;13440;50.860;13.662;2022-12-07T10:36:24;11.00;;;5.57;;
25163;SDS011;13440;50.860;13.662;2022-12-07T10:38:51;6.03;;;3.65;;
25163;SDS011;13440;50.860;13.662;2022-12-07T10:41:17;8.50;;;5.40;;
25163;SDS011;13440;50.860;13.662;2022-12-07T10:43:46;7.40;;;5.25;;
25163;SDS011;13440;50.860;13.662;2022-12-07T10:46:22;7.05;;;5.50;;
25163;SDS011;13440;50.860;13.662;2022-12-07T10:54:12;10.45;;;5.78;;
25163;SDS011;13440;50.860;13.662;2022-12-07T11:02:20;9.98;;;5.50;;
25163;SDS011;13440;50.860;13.662;2022-12-07T11:17:36;11.97;;;5.93;;
25163;SDS011;13440;50.860;13.662;2022-12-07T11:20:24;10.95;;;5.82;;
25163;SDS011;13440;50.860;13.662;2022-12-07T11:25:32;10.13;;;6.05;;
25163;SDS011;13440;50.860;13.662;2022-12-07T11:28:02;8.98;;;5.93;;
25163;SDS011;13440;50.860;13.662;2022-12-07T11:30:34;15.13;;;6.57;;
25163;SDS011;13440;50.860;13.662;2022-12-07T11:33:04;10.45;;;5.85;;
25163;SDS011;13440;50.860;13.662;2022-12-07T11:35:36;8.93;;;5.95;;
25163;SDS011;13440;50.860;13.662;2022-12-07T11:38:07;12.95;;;6.53;;
25163;SDS011;13440;50.860;13.662;2022-12-07T11:40:34;11.15;;;6.70;;
25163;SDS011;13440;50.860;13.662;2022-12-07T11:43:02;14.52;;;6.63;;
25163;SDS011;13440;50.860;13.662;2022-12-07T11:45:30;14.13;;;7.68;;
25163;SDS011;13440;50.860;13.662;2022-12-07T11:47:58;9.48;;;6.88;;
25163;SDS011;13440;50.860;13.662;2022-12-07T11:58:13;9.85;;;6.10;;
25163;SDS011;13440;50.860;13.662;2022-12-07T12:00:40;10.23;;;5.63;;
25163;SDS011;13440;50.860;13.662;2022-12-07T12:03:15;10.15;;;5.03;;
25163;SDS011;13440;50.860;13.662;2022-12-07T12:05:45;8.38;;;5.32;;
25163;SDS011;13440;50.860;13.662;2022-12-07T12:08:15;9.65;;;5.30;;
25163;SDS011;13440;50.860;13.662;2022-12-07T12:14:18;7.97;;;5.95;;
25163;SDS011;13440;50.860;13.662;2022-12-07T12:21:46;6.63;;;5.10;;
25163;SDS011;13440;50.860;13.662;2022-12-07T12:24:14;8.60;;;5.07;;
25163;SDS011;13440;50.860;13.662;2022-12-07T12:26:47;6.80;;;4.70;;
25163;SDS011;13440;50.860;13.662;2022-12-07T12:29:21;6.07;;;4.78;;
25163;SDS011;13440;50.860;13.662;2022-12-07T12:32:08;8.40;;;4.80;;
25163;SDS011;13440;50.860;13.662;2022-12-07T12:45:18;8.43;;;5.28;;
25163;SDS011;13440;50.860;13.662;2022-12-07T12:50:25;8.45;;;4.75;;
25163;SDS011;13440;50.860;13.662;2022-12-07T12:52:52;8.68;;;5.40;;
25163;SDS011;13440;50.860;13.662;2022-12-07T12:55:19;6.97;;;5.07;;
25163;SDS011;13440;50.860;13.662;2022-12-07T12:57:47;8.45;;;6.10;;
25163;SDS011;13440;50.860;13.662;2022-12-07T13:00:19;6.97;;;4.55;;
25163;SDS011;13440;50.860;13.662;2022-12-07T13:02:55;10.70;;;5.35;;
25163;SDS011;13440;50.860;13.662;2022-12-07T13:05:22;6.93;;;5.13;;
25163;SDS011;13440;50.860;13.662;2022-12-07T13:17:56;7.90;;;4.87;;
25163;SDS011;13440;50.860;13.662;2022-12-07T13:23:14;8.02;;;5.20;;
25163;SDS011;13440;50.860;13.662;2022-12-07T13:25:44;9.25;;;5.03;;
25163;SDS011;13440;50.860;13.662;2022-12-07T13:28:15;7.20;;;4.90;;
25163;SDS011;13440;50.860;13.662;2022-12-07T13:30:45;6.40;;;4.55;;
25163;SDS011;13440;50.860;13.662;2022-12-07T13:33:11;7.32;;;5.00;;
25163;SDS011;13440;50.860;13.662;2022-12-07T13:35:37;8.18;;;4.28;;
25163;SDS011;13440;50.860;13.662;2022-12-07T13:38:05;7.13;;;4.18;;
25163;SDS011;13440;50.860;13.662;2022-12-07T13:40:31;11.35;;;4.80;;
25163;SDS011;13440;50.860;13.662;2022-12-07T13:43:00;10.20;;;5.25;;
25163;SDS011;13440;50.860;13.662;2022-12-07T13:48:30;8.68;;;4.78;;
25163;SDS011;13440;50.860;13.662;2022-12-07T13:53:22;5.18;;;4.22;;
25163;SDS011;13440;50.860;13.662;2022-12-07T13:55:48;9.23;;;5.43;;
25163;SDS011;13440;50.860;13.662;2022-12-07T13:58:13;15.32;;;6.10;;
25163;SDS011;13440;50.860;13.662;2022-12-07T14:00:39;8.35;;;5.90;;
25163;SDS011;13440;50.860;13.662;2022-12-07T14:05:36;7.35;;;4.10;;
25163;SDS011;13440;50.860;13.662;2022-12-07T14:10:35;8.02;;;4.22;;
25163;SDS011;13440;50.860;13.662;2022-12-07T14:13:02;4.32;;;3.17;;
25163;SDS011;13440;50.860;13.662;2022-12-07T14:15:28;10.32;;;4.22;;
25163;SDS011;13440;50.860;13.662;2022-12-07T14:17:54;6.72;;;3.30;;
25163;SDS011;13440;50.860;13.662;2022-12-07T14:22:57;4.07;;;2.95;;
25163;SDS011;13440;50.860;13.662;2022-12-07T14:25:23;4.10;;;2.90;;
25163;SDS011;13440;50.860;13.662;2022-12-07T14:27:56;8.40;;;3.50;;
25163;SDS011;13440;50.860;13.662;2022-12-07T14:30:23;7.28;;;4.10;;
25163;SDS011;13440;50.860;13.662;2022-12-07T14:32:51;6.03;;;4.28;;
25163;SDS011;13440;50.860;13.662;2022-12-07T14:35:17;7.35;;;4.35;;
25163;SDS011;13440;50.860;13.662;2022-12-07T14:37:44;6.05;;;3.83;;
25163;SDS011;13440;50.860;13.662;2022-12-07T14:40:19;6.95;;;4.57;;
25163;SDS011;13440;50.860;13.662;2022-12-07T14:42:45;8.00;;;5.43;;
25163;SDS011;13440;50.860;13.662;2022-12-07T14:45:16;12.90;;;5.13;;
25163;SDS011;13440;50.860;13.662;2022-12-07T14:47:42;15.35;;;10.30;;
25163;SDS011;13440;50.860;13.662;2022-12-07T14:50:07;16.80;;;9.07;;
25163;SDS011;13440;50.860;13.662;2022-12-07T14:52:33;10.30;;;6.18;;
25163;SDS011;13440;50.860;13.662;2022-12-07T14:54:58;12.25;;;7.95;;
25163;SDS011;13440;50.860;13.662;2022-12-07T14:57:24;7.07;;;4.75;;
25163;SDS011;13440;50.860;13.662;2022-12-07T14:59:49;8.02;;;4.63;;
25163;SDS011;13440;50.860;13.662;2022-12-07T15:02:14;9.20;;;5.88;;
25163;SDS011;13440;50.860;13.662;2022-12-07T15:04:40;8.27;;;4.65;;
25163;SDS011;13440;50.860;13.662;2022-12-07T15:07:08;10.38;;;7.07;;
25163;SDS011;13440;50.860;13.662;2022-12-07T15:09:34;8.80;;;6.70;;
25163;SDS011;13440;50.860;13.662;2022-12-07T15:12:00;11.10;;;6.72;;
25163;SDS011;13440;50.860;13.662;2022-12-07T15:14:25;55.10;;;29.60;;
25163;SDS011;13440;50.860;13.662;2022-12-07T15:16:50;71.93;;;43.55;;
25163;SDS011;13440;50.860;13.662;2022-12-07T15:19:17;36.28;;;20.90;;
25163;SDS011;13440;50.860;13.662;2022-12-07T15:21:43;18.95;;;9.05;;
25163;SDS011;13440;50.860;13.662;2022-12-07T15:24:09;45.58;;;24.65;;
25163;SDS011;13440;50.860;13.662;2022-12-07T15:26:34;20.08;;;12.48;;
25163;SDS011;13440;50.860;13.662;2022-12-07T15:29:00;11.85;;;5.35;;
25163;SDS011;13440;50.860;13.662;2022-12-07T15:31:25;10.23;;;5.50;;
25163;SDS011;13440;50.860;13.662;2022-12-07T15:33:50;8.35;;;5.10;;
25163;SDS011;13440;50.860;13.662;2022-12-07T15:36:19;6.75;;;4.40;;
25163;SDS011;13440;50.860;13.662;2022-12-07T15:38:46;7.75;;;5.22;;
25163;SDS011;13440;50.860;13.662;2022-12-07T15:41:11;8.90;;;5.88;;
25163;SDS011;13440;50.860;13.662;2022-12-07T15:43:37;10.68;;;5.60;;
25163;SDS011;13440;50.860;13.662;2022-12-07T15:46:21;8.48;;;5.53;;
25163;SDS011;13440;50.860;13.662;2022-12-07T15:48:46;9.10;;;6.22;;
25163;SDS011;13440;50.860;13.662;2022-12-07T15:51:11;8.27;;;5.43;;
25163;SDS011;13440;50.860;13.662;2022-12-07T15:53:37;14.52;;;8.40;;
25163;SDS011;13440;50.860;13.662;2022-12-07T15:56:06;9.88;;;5.40;;
25163;SDS011;13440;50.860;13.662;2022-12-07T15:58:31;8.10;;;5.22;;
25163;SDS011;13440;50.860;13.662;2022-12-07T16:00:57;12.52;;;6.43;;
25163;SDS011;13440;50.860;13.662;2022-12-07T16:03:22;11.20;;;5.43;;
25163;SDS011;13440;50.860;13.662;2022-12-07T16:05:51;6.35;;;4.07;;
25163;SDS011;13440;50.860;13.662;2022-12-07T16:08:16;8.32;;;4.55;;
25163;SDS011;13440;50.860;13.662;2022-12-07T16:10:42;9.48;;;4.50;;
25163;SDS011;13440;50.860;13.662;2022-12-07T16:13:08;13.52;;;7.28;;
25163;SDS011;13440;50.860;13.662;2022-12-07T16:15:37;10.95;;;6.90;;
25163;SDS011;13440;50.860;13.662;2022-12-07T16:18:02;12.65;;;7.28;;
25163;SDS011;13440;50.860;13.662;2022-12-07T16:20:28;9.32;;;6.80;;
25163;SDS011;13440;50.860;13.662;2022-12-07T16:22:53;17.10;;;12.07;;
25163;SDS011;13440;50.860;13.662;2022-12-07T16:25:19;11.05;;;7.80;;